sensor_id;sensor_type;location;lat;lon;timestamp;P1;durP1;ratioP1;P2;durP2;ratioP2
70150;SDS011;57517;43.562;19.540;2023-04-15T00:01:25;4.60;;;3.08;;
70150;SDS011;57517;43.562;19.540;2023-04-15T00:03:51;6.93;;;4.68;;
70150;SDS011;57517;43.562;19.540;2023-04-15T00:06:18;9.38;;;5.18;;
70150;SDS011;57517;43.562;19.540;2023-04-15T00:08:45;9.35;;;5.90;;
70150;SDS011;57517;43.562;19.540;2023-04-15T00:11:11;7.65;;;4.38;;
70150;SDS011;57517;43.562;19.540;2023-04-15T00:13:38;3.85;;;1.75;;
70150;SDS011;57517;43.562;19.540;2023-04-15T00:16:04;3.20;;;1.48;;
70150;SDS011;57517;43.562;19.540;2023-04-15T00:18:32;4.45;;;2.85;;
70150;SDS011;57517;43.562;19.540;2023-04-15T00:20:58;2.38;;;1.30;;
70150;SDS011;57517;43.562;19.540;2023-04-15T00:23:24;2.63;;;1.42;;
70150;SDS011;57517;43.562;19.540;2023-04-15T00:25:50;6.18;;;3.30;;
70150;SDS011;57517;43.562;19.540;2023-04-15T00:28:16;8.02;;;4.40;;
70150;SDS011;57517;43.562;19.540;2023-04-15T00:30:42;5.68;;;3.53;;
70150;SDS011;57517;43.562;19.540;2023-04-15T00:33:08;4.03;;;2.30;;
70150;SDS011;57517;43.562;19.540;2023-04-15T00:35:34;4.43;;;2.42;;
70150;SDS011;57517;43.562;19.540;2023-04-15T00:38:01;4.85;;;2.95;;
70150;SDS011;57517;43.562;19.540;2023-04-15T00:40:28;5.03;;;3.20;;
70150;SDS011;57517;43.562;19.540;2023-04-15T00:42:54;4.80;;;3.03;;
70150;SDS011;57517;43.562;19.540;2023-04-15T00:45:20;4.72;;;2.85;;
70150;SDS011;57517;43.562;19.540;2023-04-15T00:47:46;7.72;;;4.22;;
70150;SDS011;57517;43.562;19.540;2023-04-15T00:50:12;12.93;;;6.10;;
70150;SDS011;57517;43.562;19.540;2023-04-15T00:52:38;13.02;;;5.40;;
70150;SDS011;57517;43.562;19.540;2023-04-15T00:55:05;6.00;;;4.20;;
70150;SDS011;57517;43.562;19.540;2023-04-15T00:57:31;4.45;;;2.70;;
70150;SDS011;57517;43.562;19.540;2023-04-15T00:59:57;4.53;;;2.30;;
70150;SDS011;57517;43.562;19.540;2023-04-15T01:02:25;3.05;;;2.10;;
70150;SDS011;57517;43.562;19.540;2023-04-15T01:04:51;5.68;;;2.60;;
70150;SDS011;57517;43.562;19.540;2023-04-15T01:07:17;5.63;;;2.80;;
70150;SDS011;57517;43.562;19.540;2023-04-15T01:09:43;5.28;;;3.10;;
70150;SDS011;57517;43.562;19.540;2023-04-15T01:12:11;4.65;;;2.55;;
70150;SDS011;57517;43.562;19.540;2023-04-15T01:14:39;6.65;;;3.38;;
70150;SDS011;57517;43.562;19.540;2023-04-15T01:17:05;4.82;;;2.97;;
70150;SDS011;57517;43.562;19.540;2023-04-15T01:19:31;6.20;;;3.40;;
70150;SDS011;57517;43.562;19.540;2023-04-15T01:21:57;5.95;;;2.70;;
70150;SDS011;57517;43.562;19.540;2023-04-15T01:24:23;4.90;;;2.40;;
70150;SDS011;57517;43.562;19.540;2023-04-15T01:26:52;4.88;;;3.35;;
70150;SDS011;57517;43.562;19.540;2023-04-15T01:29:18;6.93;;;3.97;;
70150;SDS011;57517;43.562;19.540;2023-04-15T01:31:50;5.22;;;2.95;;
70150;SDS011;57517;43.562;19.540;2023-04-15T01:34:16;3.90;;;2.15;;
70150;SDS011;57517;43.562;19.540;2023-04-15T01:36:43;2.55;;;1.85;;
70150;SDS011;57517;43.562;19.540;2023-04-15T01:39:09;2.80;;;1.55;;
70150;SDS011;57517;43.562;19.540;2023-04-15T01:41:35;5.13;;;3.05;;
70150;SDS011;57517;43.562;19.540;2023-04-15T01:44:01;3.40;;;2.03;;
70150;SDS011;57517;43.562;19.540;2023-04-15T01:46:26;3.30;;;1.90;;
70150;SDS011;57517;43.562;19.540;2023-04-15T01:48:52;4.47;;;2.00;;
70150;SDS011;57517;43.562;19.540;2023-04-15T01:51:18;2.55;;;1.75;;
70150;SDS011;57517;43.562;19.540;2023-04-15T01:53:44;3.97;;;2.30;;
70150;SDS011;57517;43.562;19.540;2023-04-15T01:56:10;10.13;;;7.15;;
70150;SDS011;57517;43.562;19.540;2023-04-15T01:58:36;11.23;;;6.18;;
70150;SDS011;57517;43.562;19.540;2023-04-15T02:01:02;8.10;;;4.88;;
70150;SDS011;57517;43.562;19.540;2023-04-15T02:03:28;5.85;;;3.80;;
70150;SDS011;57517;43.562;19.540;2023-04-15T02:05:54;4.05;;;2.13;;
70150;SDS011;57517;43.562;19.540;2023-04-15T02:08:20;3.13;;;1.70;;
70150;SDS011;57517;43.562;19.540;2023-04-15T02:10:46;2.90;;;1.40;;
70150;SDS011;57517;43.562;19.540;2023-04-15T02:13:12;3.15;;;1.52;;
70150;SDS011;57517;43.562;19.540;2023-04-15T02:15:38;2.35;;;1.20;;
70150;SDS011;57517;43.562;19.540;2023-04-15T02:18:05;1.85;;;1.10;;
70150;SDS011;57517;43.562;19.540;2023-04-15T02:20:31;3.38;;;1.25;;
70150;SDS011;57517;43.562;19.540;2023-04-15T02:22:57;3.50;;;1.60;;
70150;SDS011;57517;43.562;19.540;2023-04-15T02:25:23;6.75;;;2.83;;
70150;SDS011;57517;43.562;19.540;2023-04-15T02:27:49;5.60;;;3.83;;
70150;SDS011;57517;43.562;19.540;2023-04-15T02:30:15;5.35;;;3.10;;
70150;SDS011;57517;43.562;19.540;2023-04-15T02:32:41;6.03;;;2.85;;
70150;SDS011;57517;43.562;19.540;2023-04-15T02:35:08;4.38;;;2.60;;
70150;SDS011;57517;43.562;19.540;2023-04-15T02:37:35;5.63;;;3.50;;
70150;SDS011;57517;43.562;19.540;2023-04-15T02:40:07;5.30;;;2.95;;
70150;SDS011;57517;43.562;19.540;2023-04-15T02:42:40;4.65;;;3.25;;
70150;SDS011;57517;43.562;19.540;2023-04-15T02:45:07;4.80;;;2.50;;
70150;SDS011;57517;43.562;19.540;2023-04-15T02:47:36;4.18;;;2.13;;
70150;SDS011;57517;43.562;19.540;2023-04-15T02:50:05;3.88;;;1.80;;
70150;SDS011;57517;43.562;19.540;2023-04-15T02:52:38;5.00;;;2.88;;
70150;SDS011;57517;43.562;19.540;2023-04-15T02:55:05;5.25;;;2.83;;
70150;SDS011;57517;43.562;19.540;2023-04-15T02:57:32;5.05;;;3.47;;
70150;SDS011;57517;43.562;19.540;2023-04-15T02:59:59;5.53;;;2.85;;
70150;SDS011;57517;43.562;19.540;2023-04-15T03:02:24;6.13;;;3.17;;
70150;SDS011;57517;43.562;19.540;2023-04-15T03:04:50;4.00;;;2.55;;
70150;SDS011;57517;43.562;19.540;2023-04-15T03:07:16;4.28;;;1.88;;
70150;SDS011;57517;43.562;19.540;2023-04-15T03:09:42;2.92;;;2.15;;
70150;SDS011;57517;43.562;19.540;2023-04-15T03:12:09;2.97;;;1.90;;
70150;SDS011;57517;43.562;19.540;2023-04-15T03:14:35;2.70;;;1.55;;
70150;SDS011;57517;43.562;19.540;2023-04-15T03:17:00;4.47;;;2.25;;
70150;SDS011;57517;43.562;19.540;2023-04-15T03:19:26;3.53;;;2.00;;
70150;SDS011;57517;43.562;19.540;2023-04-15T03:21:52;4.07;;;2.10;;
70150;SDS011;57517;43.562;19.540;2023-04-15T03:24:18;3.92;;;2.17;;
70150;SDS011;57517;43.562;19.540;2023-04-15T03:26:45;3.25;;;1.70;;
70150;SDS011;57517;43.562;19.540;2023-04-15T03:29:10;3.90;;;1.65;;
70150;SDS011;57517;43.562;19.540;2023-04-15T03:31:36;3.30;;;1.95;;
70150;SDS011;57517;43.562;19.540;2023-04-15T03:34:02;6.78;;;3.70;;
70150;SDS011;57517;43.562;19.540;2023-04-15T03:36:28;6.97;;;3.67;;
70150;SDS011;57517;43.562;19.540;2023-04-15T03:38:56;7.32;;;4.50;;
70150;SDS011;57517;43.562;19.540;2023-04-15T03:41:23;6.35;;;4.25;;
70150;SDS011;57517;43.562;19.540;2023-04-15T03:43:49;6.07;;;3.75;;
70150;SDS011;57517;43.562;19.540;2023-04-15T03:46:16;5.95;;;3.92;;
70150;SDS011;57517;43.562;19.540;2023-04-15T03:48:42;5.63;;;3.53;;
70150;SDS011;57517;43.562;19.540;2023-04-15T03:51:08;5.93;;;3.60;;
70150;SDS011;57517;43.562;19.540;2023-04-15T03:53:34;6.82;;;3.88;;
70150;SDS011;57517;43.562;19.540;2023-04-15T03:56:00;5.43;;;3.70;;
70150;SDS011;57517;43.562;19.540;2023-04-15T03:58:26;6.15;;;3.75;;
70150;SDS011;57517;43.562;19.540;2023-04-15T04:00:52;8.27;;;4.10;;
70150;SDS011;57517;43.562;19.540;2023-04-15T04:03:18;5.18;;;3.15;;
70150;SDS011;57517;43.562;19.540;2023-04-15T04:05:45;5.57;;;3.17;;
70150;SDS011;57517;43.562;19.540;2023-04-15T04:08:11;5.18;;;2.97;;
70150;SDS011;57517;43.562;19.540;2023-04-15T04:10:40;4.40;;;2.78;;
70150;SDS011;57517;43.562;19.540;2023-04-15T04:13:06;7.22;;;4.65;;
70150;SDS011;57517;43.562;19.540;2023-04-15T04:15:32;9.63;;;6.78;;
70150;SDS011;57517;43.562;19.540;2023-04-15T04:17:58;7.63;;;5.57;;
70150;SDS011;57517;43.562;19.540;2023-04-15T04:20:24;8.25;;;5.40;;
70150;SDS011;57517;43.562;19.540;2023-04-15T04:22:50;4.78;;;3.75;;
70150;SDS011;57517;43.562;19.540;2023-04-15T04:25:16;6.70;;;3.88;;
70150;SDS011;57517;43.562;19.540;2023-04-15T04:27:42;6.20;;;4.20;;
70150;SDS011;57517;43.562;19.540;2023-04-15T04:30:09;4.50;;;3.78;;
70150;SDS011;57517;43.562;19.540;2023-04-15T04:32:35;6.03;;;3.55;;
70150;SDS011;57517;43.562;19.540;2023-04-15T04:35:02;5.72;;;3.90;;
70150;SDS011;57517;43.562;19.540;2023-04-15T04:37:28;7.32;;;4.22;;
70150;SDS011;57517;43.562;19.540;2023-04-15T04:39:54;5.43;;;3.65;;
70150;SDS011;57517;43.562;19.540;2023-04-15T04:42:20;7.00;;;3.97;;
70150;SDS011;57517;43.562;19.540;2023-04-15T04:44:46;6.95;;;4.40;;
70150;SDS011;57517;43.562;19.540;2023-04-15T04:47:12;7.18;;;4.63;;
70150;SDS011;57517;43.562;19.540;2023-04-15T04:49:38;8.40;;;4.72;;
70150;SDS011;57517;43.562;19.540;2023-04-15T04:52:05;6.95;;;4.22;;
70150;SDS011;57517;43.562;19.540;2023-04-15T04:54:31;6.50;;;3.85;;
70150;SDS011;57517;43.562;19.540;2023-04-15T04:56:57;7.80;;;4.38;;
70150;SDS011;57517;43.562;19.540;2023-04-15T04:59:23;7.00;;;4.35;;
70150;SDS011;57517;43.562;19.540;2023-04-15T05:01:49;6.15;;;4.65;;
70150;SDS011;57517;43.562;19.540;2023-04-15T05:04:15;6.88;;;4.72;;
70150;SDS011;57517;43.562;19.540;2023-04-15T05:06:41;6.80;;;3.97;;
70150;SDS011;57517;43.562;19.540;2023-04-15T05:09:06;8.38;;;4.80;;
70150;SDS011;57517;43.562;19.540;2023-04-15T05:11:32;8.85;;;4.82;;
70150;SDS011;57517;43.562;19.540;2023-04-15T05:13:58;8.07;;;5.75;;
70150;SDS011;57517;43.562;19.540;2023-04-15T05:16:26;10.98;;;7.85;;
70150;SDS011;57517;43.562;19.540;2023-04-15T05:18:51;11.40;;;8.55;;
70150;SDS011;57517;43.562;19.540;2023-04-15T05:21:17;18.33;;;12.52;;
70150;SDS011;57517;43.562;19.540;2023-04-15T05:23:44;25.73;;;15.50;;
70150;SDS011;57517;43.562;19.540;2023-04-15T05:26:10;20.40;;;15.55;;
70150;SDS011;57517;43.562;19.540;2023-04-15T05:28:36;18.92;;;13.90;;
70150;SDS011;57517;43.562;19.540;2023-04-15T05:31:02;17.58;;;13.35;;
70150;SDS011;57517;43.562;19.540;2023-04-15T05:33:28;20.55;;;16.52;;
70150;SDS011;57517;43.562;19.540;2023-04-15T05:35:53;26.90;;;23.35;;
70150;SDS011;57517;43.562;19.540;2023-04-15T05:38:19;26.55;;;20.75;;
70150;SDS011;57517;43.562;19.540;2023-04-15T05:40:45;32.42;;;26.83;;
70150;SDS011;57517;43.562;19.540;2023-04-15T05:43:11;27.48;;;22.73;;
70150;SDS011;57517;43.562;19.540;2023-04-15T05:45:36;26.02;;;20.17;;
70150;SDS011;57517;43.562;19.540;2023-04-15T05:48:02;27.40;;;22.20;;
70150;SDS011;57517;43.562;19.540;2023-04-15T05:50:28;23.98;;;18.15;;
70150;SDS011;57517;43.562;19.540;2023-04-15T05:52:54;14.68;;;9.57;;
70150;SDS011;57517;43.562;19.540;2023-04-15T05:55:20;15.15;;;11.50;;
70150;SDS011;57517;43.562;19.540;2023-04-15T05:57:46;13.40;;;10.80;;
70150;SDS011;57517;43.562;19.540;2023-04-15T06:00:12;13.75;;;11.93;;
70150;SDS011;57517;43.562;19.540;2023-04-15T06:02:39;16.88;;;12.48;;
70150;SDS011;57517;43.562;19.540;2023-04-15T06:05:05;13.13;;;10.43;;
70150;SDS011;57517;43.562;19.540;2023-04-15T06:07:34;27.92;;;22.60;;
70150;SDS011;57517;43.562;19.540;2023-04-15T06:10:03;25.58;;;19.88;;
70150;SDS011;57517;43.562;19.540;2023-04-15T06:12:30;17.73;;;13.88;;
70150;SDS011;57517;43.562;19.540;2023-04-15T06:14:55;4.70;;;3.08;;
70150;SDS011;57517;43.562;19.540;2023-04-15T06:17:21;5.90;;;2.80;;
70150;SDS011;57517;43.562;19.540;2023-04-15T06:19:47;3.35;;;1.42;;
70150;SDS011;57517;43.562;19.540;2023-04-15T06:22:14;2.55;;;1.30;;
70150;SDS011;57517;43.562;19.540;2023-04-15T06:24:40;2.50;;;1.45;;
70150;SDS011;57517;43.562;19.540;2023-04-15T06:27:06;3.65;;;1.63;;
70150;SDS011;57517;43.562;19.540;2023-04-15T06:29:32;2.42;;;1.60;;
70150;SDS011;57517;43.562;19.540;2023-04-15T06:31:58;4.93;;;2.65;;
70150;SDS011;57517;43.562;19.540;2023-04-15T06:34:24;2.80;;;1.80;;
70150;SDS011;57517;43.562;19.540;2023-04-15T06:36:49;2.85;;;2.17;;
70150;SDS011;57517;43.562;19.540;2023-04-15T06:39:15;3.55;;;2.67;;
70150;SDS011;57517;43.562;19.540;2023-04-15T06:41:41;3.80;;;2.45;;
70150;SDS011;57517;43.562;19.540;2023-04-15T06:44:07;3.25;;;2.28;;
70150;SDS011;57517;43.562;19.540;2023-04-15T06:46:33;3.13;;;2.17;;
70150;SDS011;57517;43.562;19.540;2023-04-15T06:48:58;2.70;;;1.60;;
70150;SDS011;57517;43.562;19.540;2023-04-15T06:51:24;3.35;;;1.58;;
70150;SDS011;57517;43.562;19.540;2023-04-15T06:53:51;3.42;;;1.60;;
70150;SDS011;57517;43.562;19.540;2023-04-15T06:56:16;4.05;;;1.55;;
70150;SDS011;57517;43.562;19.540;2023-04-15T06:58:42;2.92;;;1.38;;
70150;SDS011;57517;43.562;19.540;2023-04-15T07:01:08;4.10;;;2.10;;
70150;SDS011;57517;43.562;19.540;2023-04-15T07:03:34;4.00;;;2.15;;
70150;SDS011;57517;43.562;19.540;2023-04-15T07:05:59;3.25;;;1.45;;
70150;SDS011;57517;43.562;19.540;2023-04-15T07:08:30;2.53;;;1.30;;
70150;SDS011;57517;43.562;19.540;2023-04-15T07:10:56;2.40;;;1.35;;
70150;SDS011;57517;43.562;19.540;2023-04-15T07:13:22;4.25;;;1.55;;
70150;SDS011;57517;43.562;19.540;2023-04-15T07:15:48;3.58;;;1.70;;
70150;SDS011;57517;43.562;19.540;2023-04-15T07:18:13;5.00;;;2.40;;
70150;SDS011;57517;43.562;19.540;2023-04-15T07:20:40;3.70;;;1.85;;
70150;SDS011;57517;43.562;19.540;2023-04-15T07:23:05;3.55;;;1.80;;
70150;SDS011;57517;43.562;19.540;2023-04-15T07:25:32;4.35;;;2.47;;
70150;SDS011;57517;43.562;19.540;2023-04-15T07:27:57;4.35;;;2.33;;
70150;SDS011;57517;43.562;19.540;2023-04-15T07:30:23;2.65;;;1.63;;
70150;SDS011;57517;43.562;19.540;2023-04-15T07:32:49;4.60;;;2.22;;
70150;SDS011;57517;43.562;19.540;2023-04-15T07:35:16;6.30;;;3.88;;
70150;SDS011;57517;43.562;19.540;2023-04-15T07:37:42;6.40;;;3.55;;
70150;SDS011;57517;43.562;19.540;2023-04-15T07:40:08;10.00;;;7.28;;
70150;SDS011;57517;43.562;19.540;2023-04-15T07:42:34;9.05;;;4.72;;
70150;SDS011;57517;43.562;19.540;2023-04-15T07:45:00;4.45;;;3.13;;
70150;SDS011;57517;43.562;19.540;2023-04-15T07:47:26;16.77;;;15.07;;
70150;SDS011;57517;43.562;19.540;2023-04-15T07:49:52;6.35;;;4.75;;
70150;SDS011;57517;43.562;19.540;2023-04-15T07:52:18;5.80;;;4.30;;
70150;SDS011;57517;43.562;19.540;2023-04-15T07:54:44;6.03;;;3.30;;
70150;SDS011;57517;43.562;19.540;2023-04-15T07:57:09;2.88;;;1.60;;
70150;SDS011;57517;43.562;19.540;2023-04-15T07:59:35;6.43;;;4.57;;
70150;SDS011;57517;43.562;19.540;2023-04-15T08:02:01;10.95;;;8.75;;
70150;SDS011;57517;43.562;19.540;2023-04-15T08:04:28;13.60;;;10.82;;
70150;SDS011;57517;43.562;19.540;2023-04-15T08:06:53;3.70;;;2.65;;
70150;SDS011;57517;43.562;19.540;2023-04-15T08:09:19;3.53;;;1.88;;
70150;SDS011;57517;43.562;19.540;2023-04-15T08:11:47;4.88;;;2.28;;
70150;SDS011;57517;43.562;19.540;2023-04-15T08:14:14;4.72;;;2.65;;
70150;SDS011;57517;43.562;19.540;2023-04-15T08:16:39;5.47;;;2.00;;
70150;SDS011;57517;43.562;19.540;2023-04-15T08:19:05;4.07;;;2.20;;
70150;SDS011;57517;43.562;19.540;2023-04-15T08:21:31;4.50;;;2.25;;
70150;SDS011;57517;43.562;19.540;2023-04-15T08:23:57;3.70;;;1.80;;
70150;SDS011;57517;43.562;19.540;2023-04-15T08:26:22;2.70;;;1.55;;
70150;SDS011;57517;43.562;19.540;2023-04-15T08:28:48;3.28;;;1.77;;
70150;SDS011;57517;43.562;19.540;2023-04-15T08:31:14;3.13;;;1.80;;
70150;SDS011;57517;43.562;19.540;2023-04-15T08:33:41;3.63;;;1.65;;
70150;SDS011;57517;43.562;19.540;2023-04-15T08:36:07;3.35;;;1.85;;
70150;SDS011;57517;43.562;19.540;2023-04-15T08:38:33;8.48;;;5.55;;
70150;SDS011;57517;43.562;19.540;2023-04-15T08:41:02;4.03;;;2.40;;
70150;SDS011;57517;43.562;19.540;2023-04-15T08:43:34;6.72;;;3.10;;
70150;SDS011;57517;43.562;19.540;2023-04-15T08:46:08;3.58;;;2.38;;
70150;SDS011;57517;43.562;19.540;2023-04-15T08:48:36;3.90;;;2.42;;
70150;SDS011;57517;43.562;19.540;2023-04-15T08:51:04;4.68;;;2.30;;
70150;SDS011;57517;43.562;19.540;2023-04-15T08:53:32;4.10;;;2.33;;
70150;SDS011;57517;43.562;19.540;2023-04-15T08:55:58;4.82;;;2.80;;
70150;SDS011;57517;43.562;19.540;2023-04-15T08:58:29;4.07;;;2.75;;
70150;SDS011;57517;43.562;19.540;2023-04-15T09:00:55;4.18;;;2.95;;
70150;SDS011;57517;43.562;19.540;2023-04-15T09:03:21;4.75;;;3.00;;
70150;SDS011;57517;43.562;19.540;2023-04-15T09:05:49;4.93;;;3.10;;
70150;SDS011;57517;43.562;19.540;2023-04-15T09:08:15;6.20;;;4.03;;
70150;SDS011;57517;43.562;19.540;2023-04-15T09:10:41;4.32;;;2.53;;
70150;SDS011;57517;43.562;19.540;2023-04-15T09:13:07;3.13;;;2.10;;
70150;SDS011;57517;43.562;19.540;2023-04-15T09:15:33;2.53;;;1.60;;
70150;SDS011;57517;43.562;19.540;2023-04-15T09:18:03;3.67;;;1.85;;
70150;SDS011;57517;43.562;19.540;2023-04-15T09:20:29;2.70;;;2.00;;
70150;SDS011;57517;43.562;19.540;2023-04-15T09:23:10;4.15;;;2.58;;
70150;SDS011;57517;43.562;19.540;2023-04-15T09:25:38;3.45;;;2.30;;
70150;SDS011;57517;43.562;19.540;2023-04-15T09:28:07;4.35;;;2.35;;
70150;SDS011;57517;43.562;19.540;2023-04-15T09:30:33;4.85;;;3.40;;
70150;SDS011;57517;43.562;19.540;2023-04-15T09:33:00;4.03;;;2.85;;
70150;SDS011;57517;43.562;19.540;2023-04-15T09:35:28;6.05;;;2.67;;
70150;SDS011;57517;43.562;19.540;2023-04-15T09:38:07;3.60;;;2.47;;
70150;SDS011;57517;43.562;19.540;2023-04-15T09:40:38;4.95;;;3.42;;
70150;SDS011;57517;43.562;19.540;2023-04-15T09:43:06;4.10;;;2.22;;
70150;SDS011;57517;43.562;19.540;2023-04-15T09:45:33;7.15;;;4.57;;
70150;SDS011;57517;43.562;19.540;2023-04-15T09:50:45;15.57;;;12.32;;
70150;SDS011;57517;43.562;19.540;2023-04-15T09:53:16;10.35;;;7.70;;
70150;SDS011;57517;43.562;19.540;2023-04-15T09:55:50;5.00;;;3.13;;
70150;SDS011;57517;43.562;19.540;2023-04-15T09:58:26;5.70;;;3.17;;
70150;SDS011;57517;43.562;19.540;2023-04-15T10:00:54;5.32;;;4.05;;
70150;SDS011;57517;43.562;19.540;2023-04-15T10:03:27;4.63;;;2.30;;
70150;SDS011;57517;43.562;19.540;2023-04-15T10:05:56;4.75;;;3.38;;
70150;SDS011;57517;43.562;19.540;2023-04-15T10:08:24;4.30;;;2.83;;
70150;SDS011;57517;43.562;19.540;2023-04-15T10:10:52;15.85;;;12.13;;
70150;SDS011;57517;43.562;19.540;2023-04-15T10:13:18;6.43;;;4.60;;
70150;SDS011;57517;43.562;19.540;2023-04-15T10:16:31;7.13;;;5.38;;
70150;SDS011;57517;43.562;19.540;2023-04-15T10:18:42;2.50;;;1.40;;
70150;SDS011;57517;43.562;19.540;2023-04-15T10:21:09;3.58;;;1.77;;
70150;SDS011;57517;43.562;19.540;2023-04-15T10:23:39;4.60;;;2.65;;
70150;SDS011;57517;43.562;19.540;2023-04-15T10:26:05;2.72;;;1.20;;
70150;SDS011;57517;43.562;19.540;2023-04-15T10:28:31;4.10;;;3.35;;
70150;SDS011;57517;43.562;19.540;2023-04-15T10:30:57;3.00;;;1.60;;
70150;SDS011;57517;43.562;19.540;2023-04-15T10:33:23;5.68;;;3.08;;
70150;SDS011;57517;43.562;19.540;2023-04-15T10:35:51;4.07;;;2.80;;
70150;SDS011;57517;43.562;19.540;2023-04-15T10:38:31;1.80;;;1.20;;
70150;SDS011;57517;43.562;19.540;2023-04-15T10:41:12;3.43;;;2.13;;
70150;SDS011;57517;43.562;19.540;2023-04-15T10:46:39;16.10;;;10.00;;
70150;SDS011;57517;43.562;19.540;2023-04-15T10:51:43;6.32;;;3.13;;
70150;SDS011;57517;43.562;19.540;2023-04-15T10:54:30;4.32;;;1.50;;
70150;SDS011;57517;43.562;19.540;2023-04-15T10:59:35;1.30;;;0.80;;
70150;SDS011;57517;43.562;19.540;2023-04-15T11:02:39;4.15;;;1.20;;
70150;SDS011;57517;43.562;19.540;2023-04-15T11:05:16;2.20;;;1.20;;
70150;SDS011;57517;43.562;19.540;2023-04-15T11:12:45;2.58;;;1.50;;
70150;SDS011;57517;43.562;19.540;2023-04-15T11:18:22;1.20;;;0.80;;
70150;SDS011;57517;43.562;19.540;2023-04-15T11:26:05;3.28;;;1.58;;
70150;SDS011;57517;43.562;19.540;2023-04-15T11:28:37;4.35;;;2.33;;
70150;SDS011;57517;43.562;19.540;2023-04-15T11:31:10;3.80;;;1.80;;
70150;SDS011;57517;43.562;19.540;2023-04-15T11:33:44;3.65;;;1.85;;
70150;SDS011;57517;43.562;19.540;2023-04-15T11:36:24;1.80;;;1.10;;
70150;SDS011;57517;43.562;19.540;2023-04-15T11:38:53;3.83;;;2.05;;
70150;SDS011;57517;43.562;19.540;2023-04-15T11:41:22;6.85;;;3.95;;
70150;SDS011;57517;43.562;19.540;2023-04-15T11:43:48;3.13;;;1.67;;
70150;SDS011;57517;43.562;19.540;2023-04-15T11:46:17;2.72;;;1.42;;
70150;SDS011;57517;43.562;19.540;2023-04-15T11:48:44;1.67;;;0.90;;
70150;SDS011;57517;43.562;19.540;2023-04-15T11:51:11;3.88;;;1.80;;
70150;SDS011;57517;43.562;19.540;2023-04-15T11:53:47;2.95;;;1.10;;
70150;SDS011;57517;43.562;19.540;2023-04-15T11:56:18;1.27;;;1.00;;
70150;SDS011;57517;43.562;19.540;2023-04-15T11:58:47;4.72;;;2.47;;
70150;SDS011;57517;43.562;19.540;2023-04-15T12:01:16;2.10;;;1.40;;
70150;SDS011;57517;43.562;19.540;2023-04-15T12:03:45;5.18;;;2.00;;
70150;SDS011;57517;43.562;19.540;2023-04-15T12:16:51;9.75;;;7.70;;
70150;SDS011;57517;43.562;19.540;2023-04-15T12:19:38;6.03;;;3.45;;
70150;SDS011;57517;43.562;19.540;2023-04-15T12:22:07;4.20;;;2.20;;
70150;SDS011;57517;43.562;19.540;2023-04-15T12:24:35;2.08;;;1.30;;
70150;SDS011;57517;43.562;19.540;2023-04-15T12:27:03;4.47;;;2.20;;
70150;SDS011;57517;43.562;19.540;2023-04-15T12:29:30;8.15;;;2.95;;
70150;SDS011;57517;43.562;19.540;2023-04-15T12:34:29;1.45;;;0.80;;
70150;SDS011;57517;43.562;19.540;2023-04-15T12:37:06;3.80;;;2.28;;
70150;SDS011;57517;43.562;19.540;2023-04-15T12:39:34;3.30;;;2.00;;
70150;SDS011;57517;43.562;19.540;2023-04-15T12:42:05;8.00;;;4.78;;
70150;SDS011;57517;43.562;19.540;2023-04-15T12:44:31;4.57;;;2.00;;
70150;SDS011;57517;43.562;19.540;2023-04-15T12:46:58;2.78;;;1.98;;
70150;SDS011;57517;43.562;19.540;2023-04-15T12:49:24;3.67;;;1.58;;
70150;SDS011;57517;43.562;19.540;2023-04-15T12:51:54;4.88;;;3.35;;
70150;SDS011;57517;43.562;19.540;2023-04-15T12:54:21;4.63;;;2.60;;
70150;SDS011;57517;43.562;19.540;2023-04-15T12:56:48;5.47;;;3.95;;
70150;SDS011;57517;43.562;19.540;2023-04-15T12:59:15;7.22;;;3.92;;
70150;SDS011;57517;43.562;19.540;2023-04-15T13:01:42;8.60;;;2.47;;
70150;SDS011;57517;43.562;19.540;2023-04-15T13:04:09;2.85;;;1.85;;
70150;SDS011;57517;43.562;19.540;2023-04-15T13:06:35;5.13;;;2.50;;
70150;SDS011;57517;43.562;19.540;2023-04-15T13:09:02;4.10;;;2.08;;
70150;SDS011;57517;43.562;19.540;2023-04-15T13:11:28;2.67;;;1.42;;
70150;SDS011;57517;43.562;19.540;2023-04-15T13:14:01;2.60;;;1.30;;
70150;SDS011;57517;43.562;19.540;2023-04-15T13:16:28;1.50;;;0.93;;
70150;SDS011;57517;43.562;19.540;2023-04-15T13:18:57;2.17;;;0.90;;
70150;SDS011;57517;43.562;19.540;2023-04-15T13:21:24;2.35;;;1.10;;
70150;SDS011;57517;43.562;19.540;2023-04-15T13:23:51;1.50;;;0.80;;
70150;SDS011;57517;43.562;19.540;2023-04-15T13:26:17;3.75;;;1.33;;
70150;SDS011;57517;43.562;19.540;2023-04-15T13:28:43;3.58;;;1.60;;
70150;SDS011;57517;43.562;19.540;2023-04-15T13:31:09;3.72;;;1.83;;
70150;SDS011;57517;43.562;19.540;2023-04-15T13:33:35;3.55;;;1.90;;
70150;SDS011;57517;43.562;19.540;2023-04-15T13:36:01;7.07;;;2.65;;
70150;SDS011;57517;43.562;19.540;2023-04-15T13:38:27;7.68;;;4.10;;
70150;SDS011;57517;43.562;19.540;2023-04-15T13:40:53;9.45;;;5.28;;
70150;SDS011;57517;43.562;19.540;2023-04-15T13:43:19;7.82;;;3.20;;
70150;SDS011;57517;43.562;19.540;2023-04-15T13:45:45;3.97;;;2.10;;
70150;SDS011;57517;43.562;19.540;2023-04-15T13:48:12;3.72;;;1.90;;
70150;SDS011;57517;43.562;19.540;2023-04-15T13:50:38;2.17;;;1.27;;
70150;SDS011;57517;43.562;19.540;2023-04-15T13:53:03;1.40;;;0.90;;
70150;SDS011;57517;43.562;19.540;2023-04-15T13:55:30;2.47;;;1.50;;
70150;SDS011;57517;43.562;19.540;2023-04-15T13:57:55;2.33;;;1.45;;
70150;SDS011;57517;43.562;19.540;2023-04-15T14:00:21;5.25;;;3.70;;
70150;SDS011;57517;43.562;19.540;2023-04-15T14:02:47;7.18;;;4.28;;
70150;SDS011;57517;43.562;19.540;2023-04-15T14:05:13;6.80;;;4.00;;
70150;SDS011;57517;43.562;19.540;2023-04-15T14:07:39;3.33;;;1.80;;
70150;SDS011;57517;43.562;19.540;2023-04-15T14:10:05;4.93;;;2.75;;
70150;SDS011;57517;43.562;19.540;2023-04-15T14:12:31;5.07;;;2.40;;
70150;SDS011;57517;43.562;19.540;2023-04-15T14:14:57;3.00;;;1.60;;
70150;SDS011;57517;43.562;19.540;2023-04-15T14:17:23;2.20;;;1.50;;
70150;SDS011;57517;43.562;19.540;2023-04-15T14:19:49;4.45;;;2.75;;
70150;SDS011;57517;43.562;19.540;2023-04-15T14:22:15;3.08;;;1.52;;
70150;SDS011;57517;43.562;19.540;2023-04-15T14:24:42;3.30;;;2.15;;
70150;SDS011;57517;43.562;19.540;2023-04-15T14:27:08;2.45;;;1.65;;
70150;SDS011;57517;43.562;19.540;2023-04-15T14:29:36;5.63;;;3.15;;
70150;SDS011;57517;43.562;19.540;2023-04-15T14:32:02;3.85;;;2.25;;
70150;SDS011;57517;43.562;19.540;2023-04-15T14:34:28;3.15;;;1.67;;
70150;SDS011;57517;43.562;19.540;2023-04-15T14:36:54;2.30;;;1.33;;
70150;SDS011;57517;43.562;19.540;2023-04-15T14:39:20;2.05;;;1.30;;
70150;SDS011;57517;43.562;19.540;2023-04-15T14:41:46;3.97;;;1.88;;
70150;SDS011;57517;43.562;19.540;2023-04-15T14:44:12;3.83;;;1.77;;
70150;SDS011;57517;43.562;19.540;2023-04-15T14:46:38;2.30;;;1.40;;
70150;SDS011;57517;43.562;19.540;2023-04-15T14:49:07;1.52;;;1.00;;
70150;SDS011;57517;43.562;19.540;2023-04-15T14:51:33;2.97;;;1.67;;
70150;SDS011;57517;43.562;19.540;2023-04-15T14:53:58;2.78;;;1.58;;
70150;SDS011;57517;43.562;19.540;2023-04-15T14:56:24;2.78;;;1.38;;
70150;SDS011;57517;43.562;19.540;2023-04-15T14:58:51;2.75;;;1.67;;
70150;SDS011;57517;43.562;19.540;2023-04-15T15:01:18;3.60;;;1.50;;
70150;SDS011;57517;43.562;19.540;2023-04-15T15:03:46;3.92;;;1.60;;
70150;SDS011;57517;43.562;19.540;2023-04-15T15:06:14;2.20;;;1.20;;
70150;SDS011;57517;43.562;19.540;2023-04-15T15:08:40;3.97;;;1.30;;
70150;SDS011;57517;43.562;19.540;2023-04-15T15:11:06;2.72;;;1.30;;